Time;durP1;ratioP1;P1;durP2;ratioP2;P2;SDS_P1;SDS_P2;PMS_P1;PMS_P2;Temp;Humidity;BMP_temperature;BMP_pressure;BME280_temperature;BME280_humidity;BME280_pressure;Samples;Min_cycle;Max_cycle;Signal;HPM_P1;HPM_P2
2022/11/23 00:00:19;;;;;;;560.95;505.65;;;;;;;2.61;72.06;99894.81;694437;28;26844;-64
2022/11/23 00:00:40;;;;;;;588.10;532.17;;;;;;;2.62;72.09;99899.16;694975;28;23407;-65
2022/11/23 00:01:12;;;;;;;597.88;541.78;;;;;;;2.60;72.29;99892.28;695247;28;21455;-64
2022/11/23 00:01:36;;;;;;;588.67;532.83;;;;;;;2.63;72.38;99897.31;691318;28;114386;-63
2022/11/23 00:01:57;;;;;;;576.88;521.17;;;;;;;2.63;72.39;99898.19;692360;28;26833;-66
2022/11/23 00:02:18;;;;;;;566.40;510.95;;;;;;;2.62;72.25;99893.84;693606;28;22416;-66
2022/11/23 00:02:39;;;;;;;573.70;518.15;;;;;;;2.63;72.27;99900.00;695037;28;23532;-63
2022/11/23 00:03:01;;;;;;;566.38;510.95;;;;;;;2.63;72.65;99900.84;695285;28;21520;-65
2022/11/23 00:03:23;;;;;;;581.33;525.53;;;;;;;2.63;72.72;99905.31;695458;28;23477;-66
2022/11/23 00:03:46;;;;;;;591.22;535.10;;;;;;;2.62;72.48;99904.50;694936;28;25453;-64
2022/11/23 00:04:09;;;;;;;592.20;536.13;;;;;;;2.60;72.87;99903.81;693926;28;46249;-66
2022/11/23 00:04:31;;;;;;;579.50;524.00;;;;;;;2.62;73.00;99906.34;694934;28;43707;-65
2022/11/23 00:04:53;;;;;;;586.67;530.72;;;;;;;2.60;73.08;99903.81;694568;28;23521;-65
2022/11/23 00:05:14;;;;;;;589.17;533.15;;;;;;;2.60;73.17;99903.81;693807;28;67498;-66
2022/11/23 00:05:36;;;;;;;590.17;534.30;;;;;;;2.59;73.40;99903.97;695823;28;22428;-65
2022/11/23 00:06:00;;;;;;;567.85;512.50;;;;;;;2.57;73.28;99901.44;695787;28;21389;-66
2022/11/23 00:06:23;;;;;;;577.28;521.70;;;;;;;2.58;73.46;99903.09;693038;28;92972;-65
2022/11/23 00:06:45;;;;;;;579.90;524.13;;;;;;;2.56;73.61;99902.41;695511;28;27287;-66
2022/11/23 00:07:07;;;;;;;607.38;551.08;;;;;;;2.57;73.68;99909.44;695684;28;21180;-66
2022/11/23 00:07:28;;;;;;;600.83;544.70;;;;;;;2.57;73.63;99911.25;694963;28;46390;-65
2022/11/23 00:07:49;;;;;;;596.03;539.97;;;;;;;2.57;73.70;99908.56;695851;28;22220;-66
2022/11/23 00:08:10;;;;;;;601.28;545.13;;;;;;;2.56;73.73;99907.75;695553;28;21541;-65
2022/11/23 00:08:32;;;;;;;596.03;539.97;;;;;;;2.56;73.81;99904.25;695282;28;22258;-65
2022/11/23 00:08:55;;;;;;;595.67;539.78;;;;;;;2.56;73.88;99906.91;694528;28;23746;-66
2022/11/23 00:09:16;;;;;;;591.65;535.70;;;;;;;2.56;73.78;99914.91;691917;28;47257;-65
2022/11/23 00:09:37;;;;;;;590.20;534.22;;;;;;;2.56;73.72;99905.06;692203;28;44127;-64
2022/11/23 00:09:59;;;;;;;588.22;532.25;;;;;;;2.56;73.90;99904.25;694730;28;23463;-65
2022/11/23 00:10:20;;;;;;;591.08;535.10;;;;;;;2.52;73.85;99901.88;695592;28;21398;-65
2022/11/23 00:10:46;;;;;;;571.20;515.60;;;;;;;2.54;73.84;99912.38;692314;28;37778;-65
2022/11/23 00:11:07;;;;;;;584.70;528.85;;;;;;;2.54;73.93;99904.41;690951;28;893;-66
2022/11/23 00:11:28;;;;;;;589.85;533.83;;;;;;;2.55;73.68;99903.38;690706;28;46288;-65
2022/11/23 00:11:51;;;;;;;597.88;541.70;;;;;;;2.55;73.64;99905.22;692896;28;22322;-65
2022/11/23 00:12:12;;;;;;;598.55;542.50;;;;;;;2.53;73.62;99903.53;691334;28;69500;-65
2022/11/23 00:12:34;;;;;;;597.65;541.58;;;;;;;2.55;73.54;99903.38;692701;28;22402;-66
2022/11/23 00:12:57;;;;;;;599.80;543.60;;;;;;;2.56;73.34;99909.56;692131;28;69399;-66
2022/11/23 00:13:21;;;;;;;608.42;551.95;;;;;;;2.56;73.55;99906.91;695626;28;23328;-64
2022/11/23 00:13:44;;;;;;;569.97;514.58;;;;;;;2.56;73.47;99901.59;693026;28;90217;-65
2022/11/23 00:14:05;;;;;;;585.75;530.00;;;;;;;2.57;73.58;99905.91;693332;28;69164;-66
2022/11/23 00:14:26;;;;;;;603.20;546.95;;;;;;;2.58;73.38;99902.25;695605;28;23722;-64
2022/11/23 00:14:48;;;;;;;585.03;528.95;;;;;;;2.57;73.32;99905.91;694398;28;44936;-65
2022/11/23 00:15:12;;;;;;;599.13;542.90;;;;;;;2.58;73.34;99905.75;695691;28;23396;-65
2022/11/23 00:15:34;;;;;;;581.90;526.17;;;;;;;2.59;73.33;99906.63;692186;28;113560;-65
2022/11/23 00:15:57;;;;;;;611.33;554.72;;;;;;;2.59;73.01;99898.63;695772;28;22362;-65
2022/11/23 00:16:21;;;;;;;597.65;541.50;;;;;;;2.58;72.80;99897.75;693521;28;54333;-65
2022/11/23 00:16:43;;;;;;;593.90;537.80;;;;;;;2.60;72.85;99903.81;692158;28;92485;-64
2022/11/23 00:17:05;;;;;;;600.20;544.05;;;;;;;2.61;72.64;99899.31;694967;28;46184;-66
2022/11/23 00:17:26;;;;;;;588.08;532.20;;;;;;;2.62;72.50;99893.84;695864;28;22202;-64
2022/11/23 00:17:47;;;;;;;599.00;542.90;;;;;;;2.62;72.40;99895.66;694767;28;46379;-65
2022/11/23 00:18:08;;;;;;;597.53;541.50;;;;;;;2.64;72.53;99899.00;693126;28;22395;-66
2022/11/23 00:18:30;;;;;;;616.00;559.53;;;;;;;2.61;72.21;99892.13;694760;28;23543;-66
2022/11/23 00:18:53;;;;;;;618.55;562.10;;;;;;;2.64;72.41;99893.69;694361;28;46327;-65
2022/11/23 00:19:14;;;;;;;573.65;518.17;;;;;;;2.65;72.43;99893.53;667802;28;88027;-65
2022/11/23 00:19:35;;;;;;;586.75;531.08;;;;;;;2.66;72.33;99895.19;695473;28;23510;-65
2022/11/23 00:19:56;;;;;;;601.13;545.03;;;;;;;2.66;72.47;99894.38;695329;28;22398;-64
2022/11/23 00:20:18;;;;;;;596.90;540.72;;;;;;;2.66;72.39;99889.88;693994;28;46380;-65
2022/11/23 00:20:39;;;;;;;601.75;545.60;;;;;;;2.66;72.19;99883.72;692300;28;23354;-65
2022/11/23 00:21:06;;;;;;;571.10;515.72;;;;;;;2.67;72.31;99885.41;692956;28;22367;-65
2022/11/23 00:21:29;;;;;;;580.55;524.95;;;;;;;2.67;72.19;99888.88;688885;28;138012;-65
2022/11/23 00:21:53;;;;;;;588.75;532.95;;;;;;;2.65;72.31;99884.69;691277;28;67502;-65
2022/11/23 00:22:14;;;;;;;577.20;521.50;;;;;;;2.62;72.18;99883.16;690603;28;85741;-65
2022/11/23 00:22:36;;;;;;;572.28;516.65;;;;;;;2.66;72.17;99884.53;692504;28;7679;-65
2022/11/23 00:22:58;;;;;;;573.40;517.83;;;;;;;2.62;72.19;99875.16;691573;28;46277;-66
2022/11/23 00:23:20;;;;;;;587.50;531.70;;;;;;;2.67;72.37;99885.41;692131;28;45036;-66
2022/11/23 00:23:42;;;;;;;597.53;541.58;;;;;;;2.66;72.41;99883.72;691526;28;45979;-66
2022/11/23 00:24:05;;;;;;;601.10;545.10;;;;;;;2.66;72.42;99881.88;665966;28;44438;-65
2022/11/23 00:24:26;;;;;;;584.13;528.53;;;;;;;2.65;72.68;99880.22;691135;28;69381;-65
2022/11/23 00:24:48;;;;;;;580.30;524.60;;;;;;;2.65;72.64;99884.69;692779;28;21556;-66
2022/11/23 00:25:09;;;;;;;588.65;532.67;;;;;;;2.64;72.89;99883.03;691887;28;46308;-65
2022/11/23 00:25:30;;;;;;;574.90;519.17;;;;;;;2.63;72.86;99887.53;692058;28;22250;-65
2022/11/23 00:25:53;;;;;;;566.92;511.42;;;;;;;2.65;72.73;99887.34;689852;28;46227;-65
2022/11/23 00:26:15;;;;;;;574.70;519.15;;;;;;;2.64;72.64;99877.69;692707;28;46269;-65
2022/11/23 00:26:36;;;;;;;595.83;539.83;;;;;;;2.62;72.74;99877.84;694817;28;46271;-65
2022/11/23 00:26:59;;;;;;;584.25;528.45;;;;;;;2.63;72.78;99879.53;691883;28;45229;-64
2022/11/23 00:27:20;;;;;;;565.42;510.02;;;;;;;2.63;72.86;99876.00;692522;28;67209;-65
2022/11/23 00:27:42;;;;;;;575.95;520.38;;;;;;;2.63;72.68;99876.84;690764;28;23365;-66
2022/11/23 00:28:04;;;;;;;577.70;522.15;;;;;;;2.62;72.84;99869.00;692043;28;46277;-66
2022/11/23 00:28:26;;;;;;;577.83;522.28;;;;;;;2.62;72.73;99874.34;692669;28;21429;-64
2022/11/23 00:28:49;;;;;;;584.25;528.55;;;;;;;2.63;72.65;99873.34;687854;28;67328;-66
2022/11/23 00:29:10;;;;;;;563.85;508.65;;;;;;;2.63;72.86;99871.53;688021;28;46490;-66
2022/11/23 00:29:33;;;;;;;595.97;540.00;;;;;;;2.62;72.97;99872.50;685820;28;90438;-65
2022/11/23 00:29:55;;;;;;;597.22;541.15;;;;;;;2.60;73.02;99870.97;690145;28;21948;-65
2022/11/23 00:30:16;;;;;;;588.78;532.78;;;;;;;2.63;73.10;99876.00;686862;28;26243;-65
2022/11/23 00:30:43;;;;;;;584.72;528.97;;;;;;;2.61;73.18;99867.31;688329;28;38765;-66
2022/11/23 00:31:04;;;;;;;560.22;504.92;;;;;;;2.61;73.20;99873.47;688223;28;65525;-66
2022/11/23 00:31:26;;;;;;;564.85;509.45;;;;;;;2.61;73.40;99875.31;690742;28;22183;-66
2022/11/23 00:31:47;;;;;;;582.88;527.13;;;;;;;2.61;73.18;99878.81;689178;28;46378;-66
2022/11/23 00:32:10;;;;;;;577.92;522.30;;;;;;;2.58;73.27;99884.44;687967;28;46307;-65
2022/11/23 00:32:31;;;;;;;582.92;527.08;;;;;;;2.61;72.93;99883.31;688991;28;46398;-66
2022/11/23 00:32:53;;;;;;;610.85;554.47;;;;;;;2.56;73.27;99880.25;687223;28;23473;-66
2022/11/23 00:33:14;;;;;;;583.90;528.17;;;;;;;2.58;73.34;99884.44;687597;28;23505;-65
2022/11/23 00:33:40;;;;;;;597.80;541.75;;;;;;;2.55;73.55;99878.56;686405;28;38515;-66
2022/11/23 00:34:02;;;;;;;619.22;562.67;;;;;;;2.54;73.70;99877.72;686884;28;44358;-66
2022/11/23 00:34:23;;;;;;;621.58;565.17;;;;;;;2.56;73.60;99883.75;688513;28;67467;-66
2022/11/23 00:34:46;;;;;;;617.95;561.72;;;;;;;2.57;73.73;99887.25;688895;28;44371;-66
2022/11/23 00:35:08;;;;;;;605.88;549.75;;;;;;;2.56;74.08;99882.91;687900;28;46327;-66
2022/11/23 00:35:29;;;;;;;584.45;528.58;;;;;;;2.56;73.92;99882.91;690986;28;22059;-66
2022/11/23 00:35:59;;;;;;;570.75;515.17;;;;;;;2.54;73.80;99885.72;691801;28;45275;-64
2022/11/23 00:36:22;;;;;;;599.33;543.10;;;;;;;2.55;74.09;99887.41;688002;28;137313;-64
2022/11/23 00:36:43;;;;;;;592.08;536.08;;;;;;;2.56;73.79;99889.09;691183;28;69488;-66
2022/11/23 00:37:04;;;;;;;584.45;528.58;;;;;;;2.53;73.74;99886.72;694371;28;21146;-66
2022/11/23 00:37:27;;;;;;;597.25;541.22;;;;;;;2.56;73.61;99883.75;693880;28;45231;-64
2022/11/23 00:37:49;;;;;;;593.72;537.78;;;;;;;2.57;73.41;99885.44;693421;28;69289;-65
2022/11/23 00:38:10;;;;;;;603.60;547.28;;;;;;;2.58;73.37;99891.59;693863;28;22394;-66
2022/11/23 00:38:32;;;;;;;585.72;529.88;;;;;;;2.57;73.20;99887.25;691486;28;45272;-66
2022/11/23 00:38:53;;;;;;;583.30;527.40;;;;;;;2.58;73.03;99889.75;686812;28;23562;-66
2022/11/23 00:39:16;;;;;;;571.38;515.72;;;;;;;2.59;73.10;99890.63;676600;28;45211;-65
2022/11/23 00:39:37;;;;;;;573.15;517.80;;;;;;;2.59;72.89;99886.13;691070;28;46285;-66
2022/11/23 00:39:58;;;;;;;566.22;510.90;;;;;;;2.57;73.00;99884.59;688866;28;44381;-65
2022/11/23 00:40:20;;;;;;;578.63;522.92;;;;;;;2.60;72.85;99893.16;689702;28;22394;-66
2022/11/23 00:40:41;;;;;;;597.22;541.22;;;;;;;2.61;72.87;99891.31;690670;28;21507;-66
2022/11/23 00:41:06;;;;;;;594.40;538.38;;;;;;;2.61;72.97;99888.66;689745;28;22387;-65
2022/11/23 00:41:27;;;;;;;566.13;510.75;;;;;;;2.62;73.06;99901.00;683764;28;114776;-65
2022/11/23 00:41:49;;;;;;;567.88;512.17;;;;;;;2.62;73.08;99887.66;686735;28;22132;-65
2022/11/23 00:42:10;;;;;;;579.05;523.15;;;;;;;2.61;72.77;99892.13;688198;28;46225;-66
2022/11/23 00:42:31;;;;;;;555.53;500.40;;;;;;;2.61;73.13;99900.13;693539;28;21327;-66
2022/11/23 00:42:55;;;;;;;573.47;518.00;;;;;;;2.59;73.05;99894.13;689273;28;67345;-66
2022/11/23 00:43:16;;;;;;;588.65;532.72;;;;;;;2.61;73.03;99896.63;689447;28;46413;-65
2022/11/23 00:43:39;;;;;;;578.65;522.92;;;;;;;2.61;72.99;99896.63;692099;28;46248;-65
2022/11/23 00:44:01;;;;;;;593.53;537.25;;;;;;;2.61;72.82;99897.47;689903;28;69201;-65
2022/11/23 00:44:23;;;;;;;589.47;533.58;;;;;;;2.62;72.73;99898.34;692914;28;23484;-66
2022/11/23 00:44:44;;;;;;;589.42;533.63;;;;;;;2.62;73.05;99901.00;692759;28;44968;-65
2022/11/23 00:45:07;;;;;;;584.55;528.72;;;;;;;2.62;72.95;99901.00;692885;28;21563;-65
2022/11/23 00:45:28;;;;;;;594.15;538.15;;;;;;;2.62;73.10;99904.50;692993;28;46426;-65
2022/11/23 00:45:51;;;;;;;599.78;543.47;;;;;;;2.60;73.27;99898.47;691924;28;46273;-66
2022/11/23 00:46:13;;;;;;;582.60;526.78;;;;;;;2.58;73.53;99899.59;688470;28;46272;-66
2022/11/23 00:46:36;;;;;;;581.35;525.58;;;;;;;2.60;73.40;99905.63;687855;28;90354;-65
2022/11/23 00:47:00;;;;;;;572.47;516.97;;;;;;;2.60;73.61;99908.28;691388;28;67574;-65
2022/11/23 00:47:21;;;;;;;591.67;535.53;;;;;;;2.58;73.62;99913.75;688391;28;69344;-65
2022/11/23 00:47:42;;;;;;;593.65;537.60;;;;;;;2.58;73.85;99911.09;692631;28;22393;-65
2022/11/23 00:48:04;;;;;;;570.78;515.25;;;;;;;2.58;73.67;99911.09;692925;28;21531;-65
2022/11/23 00:48:26;;;;;;;560.58;505.30;;;;;;;2.57;73.71;99912.09;693215;28;1348;-65
2022/11/23 00:48:49;;;;;;;582.88;527.10;;;;;;;2.57;73.79;99914.75;692244;28;22388;-65
2022/11/23 00:49:10;;;;;;;584.03;528.25;;;;;;;2.53;73.82;99908.88;666241;28;67242;-66
2022/11/23 00:49:32;;;;;;;587.42;531.63;;;;;;;2.55;73.89;99908.72;695444;28;21563;-66
2022/11/23 00:49:53;;;;;;;580.08;524.45;;;;;;;2.56;74.03;99920.25;692624;28;24742;-65
2022/11/23 00:50:16;;;;;;;561.72;506.63;;;;;;;2.55;73.98;99913.22;692843;28;22391;-65
2022/11/23 00:50:37;;;;;;;560.88;505.55;;;;;;;2.55;73.98;99915.88;690858;28;67476;-66
2022/11/23 00:51:00;;;;;;;564.05;508.70;;;;;;;2.54;73.84;99915.06;691840;28;46352;-65
2022/11/23 00:51:23;;;;;;;552.58;497.55;;;;;;;2.54;74.08;99912.38;691785;28;47527;-66
2022/11/23 00:51:47;;;;;;;534.78;480.10;;;;;;;2.52;74.29;99907.22;689127;28;37995;-65
2022/11/23 00:52:08;;;;;;;566.00;510.55;;;;;;;2.53;74.31;99918.69;688920;28;44495;-65
2022/11/23 00:52:29;;;;;;;561.80;506.38;;;;;;;2.49;74.34;99912.81;686381;28;45260;-66
2022/11/23 00:52:51;;;;;;;558.95;503.42;;;;;;;2.50;74.41;99919.81;687984;28;22264;-65
2022/11/23 00:53:12;;;;;;;573.50;517.85;;;;;;;2.47;74.22;99916.59;689507;28;22321;-65
2022/11/23 00:53:35;;;;;;;562.83;507.65;;;;;;;2.50;74.52;99921.66;690820;28;21517;-64
2022/11/23 00:53:56;;;;;;;564.90;509.52;;;;;;;2.49;74.58;99915.50;672590;28;88112;-66
2022/11/23 00:54:19;;;;;;;559.03;503.85;;;;;;;2.49;74.45;99923.47;685745;28;70315;-65
2022/11/23 00:54:41;;;;;;;569.45;514.05;;;;;;;2.48;74.38;99919.13;689766;28;23304;-65
2022/11/23 00:55:05;;;;;;;552.25;497.08;;;;;;;2.48;74.42;99921.78;687525;28;14686;-65
2022/11/23 00:55:27;;;;;;;577.75;522.25;;;;;;;2.48;74.52;99927.13;686543;28;46652;-65
2022/11/23 00:55:50;;;;;;;587.00;531.30;;;;;;;2.46;74.43;99910.44;684805;28;21515;-66
2022/11/23 00:56:13;;;;;;;570.40;514.88;;;;;;;2.47;74.62;99917.44;685775;28;69259;-65
2022/11/23 00:56:35;;;;;;;564.38;509.08;;;;;;;2.46;74.46;99913.13;687691;28;92619;-66
2022/11/23 00:56:56;;;;;;;558.67;503.48;;;;;;;2.46;74.56;99910.44;686951;28;22385;-66
2022/11/23 00:57:18;;;;;;;571.83;516.42;;;;;;;2.47;74.21;99920.09;686767;28;46190;-66
2022/11/23 00:57:39;;;;;;;583.42;527.72;;;;;;;2.47;74.13;99912.09;688534;28;21543;-65
2022/11/23 00:58:01;;;;;;;592.28;536.03;;;;;;;2.48;74.20;99913.78;687118;28;23232;-64
2022/11/23 00:58:23;;;;;;;557.60;502.00;;;;;;;2.48;74.22;99919.13;685293;28;68318;-65
2022/11/23 00:58:48;;;;;;;556.53;501.35;;;;;;;2.49;73.96;99914.63;686664;28;46210;-65
2022/11/23 00:59:10;;;;;;;546.13;491.17;;;;;;;2.46;73.69;99907.78;661169;28;115279;-66
2022/11/23 00:59:32;;;;;;;585.35;529.50;;;;;;;2.48;73.88;99921.78;689160;28;67471;-65
2022/11/23 00:59:54;;;;;;;584.80;529.08;;;;;;;2.49;74.19;99912.81;692739;28;45218;-64
2022/11/23 01:00:18;;;;;;;592.33;536.38;;;;;;;2.48;74.26;99918.31;687652;28;92224;-66
2022/11/23 01:00:44;;;;;;;558.85;503.65;;;;;;;2.51;74.18;99916.19;691490;28;60858;-66
2022/11/23 01:01:09;;;;;;;580.80;524.97;;;;;;;2.50;74.50;99916.31;690588;28;23474;-66
2022/11/23 01:01:32;;;;;;;573.63;518.05;;;;;;;2.50;74.74;99914.47;684362;28;115174;-66
2022/11/23 01:01:54;;;;;;;576.40;520.78;;;;;;;2.48;74.40;99905.81;681356;28;90887;-66
2022/11/23 01:02:15;;;;;;;584.38;528.55;;;;;;;2.49;74.38;99912.81;684059;28;22367;-65
2022/11/23 01:02:37;;;;;;;574.50;518.92;;;;;;;2.50;74.24;99913.66;681856;28;44314;-65
2022/11/23 01:02:59;;;;;;;588.22;532.40;;;;;;;2.50;74.25;99913.66;684662;28;22395;-65
2022/11/23 01:03:22;;;;;;;562.90;507.60;;;;;;;2.48;74.18;99913.78;683103;28;92283;-65
2022/11/23 01:03:46;;;;;;;572.70;517.10;;;;;;;2.45;74.53;99914.09;685195;28;4364;-65
2022/11/23 01:04:08;;;;;;;576.92;521.28;;;;;;;2.49;74.43;99918.16;682042;28;92319;-65
2022/11/23 01:04:29;;;;;;;569.42;514.00;;;;;;;2.48;74.64;99924.47;688441;28;21535;-64
2022/11/23 01:04:54;;;;;;;576.53;520.78;;;;;;;2.47;74.49;99912.09;686727;28;115042;-64
2022/11/23 01:05:16;;;;;;;575.08;519.53;;;;;;;2.46;74.58;99913.13;685910;28;46377;-64
2022/11/23 01:05:37;;;;;;;581.38;525.83;;;;;;;2.48;74.67;99915.63;687986;28;46155;-65
2022/11/23 01:06:06;;;;;;;570.38;515.05;;;;;;;2.46;74.71;99915.78;689917;28;22398;-66
2022/11/23 01:06:29;;;;;;;574.92;519.50;;;;;;;2.46;74.75;99918.44;684075;28;137830;-65
2022/11/23 01:06:55;;;;;;;561.42;506.08;;;;;;;2.46;74.51;99907.78;688128;28;69247;-66
2022/11/23 01:07:16;;;;;;;567.38;512.08;;;;;;;2.48;74.72;99915.63;686660;28;137736;-66
2022/11/23 01:07:38;;;;;;;572.92;517.50;;;;;;;2.47;74.78;99911.28;691889;28;46263;-66
2022/11/23 01:07:59;;;;;;;579.17;523.60;;;;;;;2.47;74.95;99917.44;695243;28;22395;-64
2022/11/23 01:08:21;;;;;;;585.58;529.83;;;;;;;2.48;74.82;99918.31;691866;28;23495;-66
2022/11/23 01:08:46;;;;;;;571.70;516.20;;;;;;;2.48;75.05;99910.31;690303;28;67300;-65
2022/11/23 01:09:12;;;;;;;580.72;524.83;;;;;;;2.48;74.88;99911.13;663217;28;115083;-65
2022/11/23 01:09:33;;;;;;;585.80;530.08;;;;;;;2.48;74.63;99911.13;686705;28;115421;-65
2022/11/23 01:09:55;;;;;;;575.00;519.42;;;;;;;2.48;74.56;99913.78;689212;28;23394;-65
2022/11/23 01:10:17;;;;;;;588.00;532.22;;;;;;;2.49;74.74;99911.97;686701;28;68423;-66
2022/11/23 01:10:38;;;;;;;576.03;520.60;;;;;;;2.48;74.75;99910.31;684682;28;46161;-66
2022/11/23 01:11:01;;;;;;;567.33;512.08;;;;;;;2.49;74.69;99909.28;685286;28;22382;-66
2022/11/23 01:11:24;;;;;;;560.95;505.83;;;;;;;2.49;74.86;99912.81;687154;28;68161;-65
2022/11/23 01:11:46;;;;;;;549.33;494.27;;;;;;;2.47;74.72;99920.09;689334;28;69383;-65
2022/11/23 01:12:07;;;;;;;576.72;521.17;;;;;;;2.50;74.76;99911.00;691942;28;44352;-66
2022/11/23 01:12:28;;;;;;;588.33;532.53;;;;;;;2.50;74.64;99917.16;690171;28;23482;-65
2022/11/23 01:12:50;;;;;;;585.83;529.85;;;;;;;2.50;74.64;99914.47;686939;28;22394;-65
2022/11/23 01:13:12;;;;;;;580.90;525.08;;;;;;;2.48;74.39;99907.63;685193;28;69341;-65
2022/11/23 01:13:34;;;;;;;581.97;526.05;;;;;;;2.51;74.44;99910.84;687859;28;23701;-66
2022/11/23 01:13:57;;;;;;;551.08;496.02;;;;;;;2.51;74.33;99910.84;687360;28;46481;-66
2022/11/23 01:14:18;;;;;;;557.95;502.65;;;;;;;2.51;74.54;99910.84;686314;28;69365;-66
2022/11/23 01:14:40;;;;;;;591.00;534.95;;;;;;;2.52;74.54;99915.19;691025;28;22232;-64
2022/11/23 01:15:02;;;;;;;571.97;516.20;;;;;;;2.52;74.70;99906.34;692990;28;68332;-65
2022/11/23 01:15:23;;;;;;;581.60;525.83;;;;;;;2.50;74.43;99905.66;695543;28;13321;-66
2022/11/23 01:15:50;;;;;;;558.47;503.52;;;;;;;2.53;74.66;99913.38;693120;28;92728;-65
2022/11/23 01:16:14;;;;;;;559.17;504.23;;;;;;;2.51;74.60;99913.50;689619;28;92210;-65
2022/11/23 01:16:39;;;;;;;564.60;509.40;;;;;;;2.53;74.46;99911.53;685938;28;138496;-65
2022/11/23 01:17:00;;;;;;;557.65;502.58;;;;;;;2.54;74.44;99912.38;688267;28;69088;-64
2022/11/23 01:17:21;;;;;;;564.63;509.27;;;;;;;2.55;74.21;99905.22;688876;28;45242;-66
2022/11/23 01:17:42;;;;;;;577.08;521.55;;;;;;;2.54;74.46;99909.72;690172;28;23821;-65
2022/11/23 01:18:05;;;;;;;580.58;524.88;;;;;;;2.52;74.32;99901.00;689578;28;23591;-65
2022/11/23 01:18:26;;;;;;;568.70;513.35;;;;;;;2.55;74.38;99910.56;686339;28;68332;-65
2022/11/23 01:18:51;;;;;;;580.47;524.92;;;;;;;2.56;74.40;99909.56;688716;28;46271;-65
2022/11/23 01:19:14;;;;;;;578.80;523.10;;;;;;;2.55;74.38;99899.88;686573;28;90321;-65
2022/11/23 01:19:36;;;;;;;574.65;519.10;;;;;;;2.56;74.44;99909.56;683875;28;68093;-65
2022/11/23 01:19:57;;;;;;;578.20;522.38;;;;;;;2.57;74.13;99905.91;683264;28;46169;-64
2022/11/23 01:20:19;;;;;;;561.20;505.60;;;;;;;2.56;74.27;99907.75;687273;28;44072;-66
2022/11/23 01:20:40;;;;;;;547.25;492.30;;;;;;;2.57;74.16;99913.91;689874;28;23482;-65
2022/11/23 01:21:04;;;;;;;576.72;521.40;;;;;;;2.53;74.29;99908.88;689236;28;67494;-65
2022/11/23 01:21:27;;;;;;;574.05;518.58;;;;;;;2.57;74.34;99913.91;692819;28;45057;-64
2022/11/23 01:21:48;;;;;;;564.80;509.60;;;;;;;2.56;74.45;99912.25;694067;28;67481;-65
2022/11/23 01:22:10;;;;;;;556.40;501.27;;;;;;;2.56;74.26;99909.56;694815;28;23502;-64
2022/11/23 01:22:31;;;;;;;565.00;509.80;;;;;;;2.57;74.15;99911.25;695656;28;22516;-66
2022/11/23 01:22:53;;;;;;;580.10;524.47;;;;;;;2.57;73.92;99913.91;694841;28;44347;-66
2022/11/23 01:23:14;;;;;;;564.40;509.15;;;;;;;2.58;74.21;99918.25;694640;28;45481;-66
2022/11/23 01:23:36;;;;;;;569.22;513.90;;;;;;;2.57;74.37;99913.91;695054;28;21202;-65
2022/11/23 01:23:58;;;;;;;585.65;529.78;;;;;;;2.57;74.26;99914.75;690286;28;45260;-65
2022/11/23 01:24:23;;;;;;;590.78;534.80;;;;;;;2.56;74.22;99907.75;690039;28;15331;-64
2022/11/23 01:24:44;;;;;;;575.13;519.50;;;;;;;2.57;73.95;99911.25;687773;28;69491;-65
2022/11/23 01:25:07;;;;;;;574.20;518.53;;;;;;;2.59;74.09;99917.28;689622;28;21273;-63
2022/11/23 01:25:28;;;;;;;577.95;522.08;;;;;;;2.58;74.29;99916.44;687832;28;69259;-65
2022/11/23 01:25:53;;;;;;;591.15;535.08;;;;;;;2.57;74.28;99917.44;688839;28;92136;-65
2022/11/23 01:26:16;;;;;;;588.58;532.83;;;;;;;2.56;74.09;99912.25;687688;28;90655;-64
2022/11/23 01:26:38;;;;;;;588.47;532.85;;;;;;;2.55;73.96;99911.38;689846;28;22227;-65
2022/11/23 01:26:59;;;;;;;599.50;543.50;;;;;;;2.55;73.98;99916.72;689229;28;47558;-65
2022/11/23 01:27:21;;;;;;;588.97;533.15;;;;;;;2.58;74.19;99913.75;686432;28;43243;-66
2022/11/23 01:27:46;;;;;;;585.53;529.70;;;;;;;2.59;74.08;99918.13;684740;28;92709;-65
2022/11/23 01:28:07;;;;;;;572.67;517.20;;;;;;;2.58;74.08;99911.09;687647;28;44248;-66
2022/11/23 01:28:28;;;;;;;564.50;509.17;;;;;;;2.59;74.12;99912.78;690467;28;22342;-65
2022/11/23 01:28:50;;;;;;;585.70;529.92;;;;;;;2.55;73.77;99907.88;691517;28;21547;-65
2022/11/23 01:29:13;;;;;;;614.80;558.38;;;;;;;2.59;73.91;99915.44;664568;28;44170;-66
2022/11/23 01:29:35;;;;;;;587.70;531.92;;;;;;;2.61;73.88;99918.81;688161;28;68975;-65
2022/11/23 01:29:56;;;;;;;560.92;505.67;;;;;;;2.60;73.90;99918.94;687714;28;4117;-66
2022/11/23 01:30:17;;;;;;;568.63;513.22;;;;;;;2.59;74.21;99920.78;686777;28;21352;-66
2022/11/23 01:30:39;;;;;;;570.97;515.50;;;;;;;2.59;74.03;99911.94;687192;28;22322;-65
2022/11/23 01:31:05;;;;;;;576.83;521.17;;;;;;;2.60;74.06;99910.94;683831;28;45353;-65
2022/11/23 01:31:27;;;;;;;568.53;513.30;;;;;;;2.59;74.04;99919.94;682034;28;136456;-65
2022/11/23 01:31:48;;;;;;;571.10;515.80;;;;;;;2.58;74.19;99916.44;686940;28;22351;-65
2022/11/23 01:32:09;;;;;;;576.60;521.03;;;;;;;2.58;74.27;99918.25;688505;28;23792;-66
2022/11/23 01:32:33;;;;;;;575.22;519.75;;;;;;;2.57;74.45;99920.09;685617;28;67483;-65
2022/11/23 01:32:55;;;;;;;592.72;536.85;;;;;;;2.58;74.17;99911.09;684422;28;69447;-65
2022/11/23 01:33:16;;;;;;;586.45;530.67;;;;;;;2.59;74.12;99917.28;686787;28;21547;-65
2022/11/23 01:33:37;;;;;;;576.10;520.70;;;;;;;2.57;74.15;99917.44;689286;28;22471;-65
2022/11/23 01:34:00;;;;;;;594.17;538.17;;;;;;;2.57;74.27;99917.44;662856;28;44361;-66
2022/11/23 01:34:22;;;;;;;587.92;532.13;;;;;;;2.59;74.11;99922.63;689131;28;69479;-65
2022/11/23 01:34:44;;;;;;;584.25;528.40;;;;;;;2.58;74.23;99919.09;687895;28;67258;-65
2022/11/23 01:35:06;;;;;;;583.38;527.67;;;;;;;2.59;74.04;99918.13;689809;28;23448;-65
2022/11/23 01:35:27;;;;;;;564.45;509.27;;;;;;;2.58;74.40;99924.44;689129;28;45239;-66
2022/11/23 01:35:49;;;;;;;572.78;517.22;;;;;;;2.58;74.21;99927.09;689886;28;22162;-65
2022/11/23 01:36:12;;;;;;;585.15;529.28;;;;;;;2.56;74.17;99909.56;688601;28;46294;-65
2022/11/23 01:36:42;;;;;;;572.25;516.72;;;;;;;2.58;74.29;99912.94;690932;28;61703;-65
2022/11/23 01:37:03;;;;;;;574.88;519.38;;;;;;;2.58;74.30;99918.25;688195;28;69509;-65
2022/11/23 01:37:24;;;;;;;583.50;527.75;;;;;;;2.58;74.21;99918.25;689716;28;22350;-65
2022/11/23 01:37:47;;;;;;;556.30;501.23;;;;;;;2.58;74.18;99924.44;688452;28;46410;-65
2022/11/23 01:38:09;;;;;;;549.85;494.95;;;;;;;2.55;74.03;99918.56;688158;28;67348;-66
2022/11/23 01:38:31;;;;;;;557.40;502.40;;;;;;;2.58;74.41;99921.75;689994;28;22392;-65
2022/11/23 01:38:54;;;;;;;572.05;516.55;;;;;;;2.59;73.97;99925.28;684709;28;69372;-65
2022/11/23 01:39:17;;;;;;;578.58;522.97;;;;;;;2.59;74.16;99917.28;681370;28;69551;-64
2022/11/23 01:39:38;;;;;;;565.53;510.33;;;;;;;2.58;73.97;99916.44;691007;28;46325;-64
2022/11/23 01:39:59;;;;;;;568.20;512.80;;;;;;;2.59;73.98;99919.94;691684;28;45263;-65
2022/11/23 01:40:21;;;;;;;578.50;522.80;;;;;;;2.59;74.32;99917.28;692455;28;23387;-64
2022/11/23 01:40:44;;;;;;;586.10;530.30;;;;;;;2.59;74.01;99920.78;693229;28;1038;-66
2022/11/23 01:41:06;;;;;;;571.95;516.33;;;;;;;2.57;73.71;99919.22;688583;28;69450;-65
2022/11/23 01:41:35;;;;;;;577.05;521.25;;;;;;;2.58;73.96;99918.25;687633;28;85636;-64
2022/11/23 01:41:57;;;;;;;581.03;525.25;;;;;;;2.61;73.62;99920.63;687754;28;67489;-65
2022/11/23 01:42:18;;;;;;;587.42;531.58;;;;;;;2.60;73.72;99914.47;685667;28;46594;-65
2022/11/23 01:42:46;;;;;;;576.45;521.00;;;;;;;2.60;73.77;99917.16;686226;28;22444;-66